Time;durP1;ratioP1;P1;durP2;ratioP2;P2;SDS_P1;SDS_P2;PMS_P1;PMS_P2;Temp;Humidity;BMP_temperature;BMP_pressure;BME280_temperature;BME280_humidity;BME280_pressure;Samples;Min_cycle;Max_cycle;Signal;HPM_P1;HPM_P2
2022/04/08 00:01:25;;;;;;;14.52;2.25;;;6.10;99.90;;;;;;5074407;28;20044;-60
2022/04/08 00:03:52;;;;;;;8.30;2.38;;;6.00;99.90;;;;;;5074573;28;20150;-60
2022/04/08 00:20:30;;;;;;;5.32;0.93;;;5.80;99.90;;;;;;5092081;28;20040;-61
2022/04/08 00:22:56;;;;;;;4.72;0.90;;;5.80;99.90;;;;;;5091984;28;20044;-61
2022/04/08 00:25:21;;;;;;;6.10;1.30;;;5.80;99.90;;;;;;5092235;28;20117;-61
2022/04/08 00:27:47;;;;;;;2.17;0.60;;;5.70;99.90;;;;;;5092021;28;20040;-60
2022/04/08 00:30:12;;;;;;;5.97;1.20;;;5.60;99.90;;;;;;5092011;28;20060;-60
2022/04/08 00:32:38;;;;;;;5.65;0.90;;;5.50;99.90;;;;;;5091869;28;20139;-60
2022/04/08 00:35:04;;;;;;;5.05;0.77;;;5.40;99.90;;;;;;5090915;28;20055;-60
2022/04/08 00:37:30;;;;;;;3.10;0.70;;;5.30;99.90;;;;;;5091837;28;20036;-61
2022/04/08 00:39:55;;;;;;;6.38;1.38;;;5.20;99.90;;;;;;5092785;28;20052;-60
2022/04/08 00:42:21;;;;;;;6.25;1.05;;;5.20;99.90;;;;;;5093974;28;20043;-61
2022/04/08 00:44:46;;;;;;;4.65;1.20;;;5.20;99.90;;;;;;5093904;28;20493;-61
2022/04/08 00:47:12;;;;;;;3.13;0.60;;;5.20;99.90;;;;;;5093859;28;20044;-61
2022/04/08 00:49:38;;;;;;;8.90;1.38;;;5.10;99.90;;;;;;5093879;28;20364;-60
2022/04/08 00:52:05;;;;;;;6.75;1.20;;;5.10;99.90;;;;;;5093961;28;20043;-60
2022/04/08 00:54:31;;;;;;;6.97;1.25;;;5.00;99.90;;;;;;5093804;28;20249;-61
2022/04/08 00:56:57;;;;;;;9.13;1.33;;;5.20;99.90;;;;;;5094357;28;20048;-61
2022/04/08 00:59:26;;;;;;;14.43;2.15;;;5.20;99.90;;;;;;5093682;28;20046;-61
2022/04/08 01:01:52;;;;;;;16.88;2.90;;;5.10;99.90;;;;;;5092316;28;20470;-61
2022/04/08 01:04:21;;;;;;;9.20;1.38;;;5.00;99.90;;;;;;5093708;28;20080;-61
2022/04/08 01:06:47;;;;;;;9.65;1.48;;;4.90;99.90;;;;;;5093594;28;20398;-61
2022/04/08 01:09:14;;;;;;;8.30;1.77;;;4.80;99.90;;;;;;5093262;28;20390;-61
2022/04/08 01:11:41;;;;;;;5.40;1.40;;;4.70;99.90;;;;;;5093363;28;20043;-61
2022/04/08 01:14:11;;;;;;;11.40;2.10;;;4.70;99.90;;;;;;5093297;28;20032;-61
2022/04/08 01:16:37;;;;;;;9.05;1.75;;;4.70;99.90;;;;;;5093240;28;20067;-61
2022/04/08 01:19:03;;;;;;;6.95;2.30;;;4.80;99.90;;;;;;5093333;28;20129;-61
2022/04/08 01:21:29;;;;;;;14.68;1.65;;;4.80;99.90;;;;;;5093254;28;20043;-61
2022/04/08 01:23:56;;;;;;;12.35;2.70;;;4.90;99.90;;;;;;5093251;28;20028;-61
2022/04/08 01:26:22;;;;;;;11.90;2.05;;;4.80;99.90;;;;;;5093113;28;20082;-61
2022/04/08 01:28:47;;;;;;;9.90;1.73;;;4.80;99.90;;;;;;5093115;28;20119;-62
2022/04/08 01:31:13;;;;;;;11.25;1.60;;;4.80;99.90;;;;;;5093493;28;20384;-61
2022/04/08 01:33:39;;;;;;;14.20;1.90;;;4.80;99.90;;;;;;5092844;28;20044;-61
2022/04/08 01:36:05;;;;;;;5.15;1.08;;;4.70;99.90;;;;;;5093276;28;20044;-61
2022/04/08 01:38:30;;;;;;;5.95;1.27;;;4.70;99.90;;;;;;5092737;28;20051;-62
2022/04/08 01:40:56;;;;;;;5.40;1.70;;;4.80;99.90;;;;;;5092821;28;20035;-62
2022/04/08 01:43:21;;;;;;;7.43;1.20;;;4.70;99.90;;;;;;5093267;28;20530;-61
2022/04/08 01:45:47;;;;;;;6.07;1.20;;;4.80;99.90;;;;;;5092829;28;20040;-61
2022/04/08 01:48:13;;;;;;;7.25;1.23;;;4.80;99.90;;;;;;5092855;28;20448;-62
2022/04/08 01:50:38;;;;;;;11.88;1.30;;;4.80;99.90;;;;;;5092848;28;20072;-61
2022/04/08 01:53:04;;;;;;;8.48;1.67;;;4.70;99.90;;;;;;5092651;28;20107;-61
2022/04/08 01:55:30;;;;;;;9.27;0.95;;;4.70;99.90;;;;;;5093176;28;20484;-61
2022/04/08 01:57:55;;;;;;;8.90;1.35;;;4.80;99.90;;;;;;5092554;28;20036;-62
2022/04/08 02:00:21;;;;;;;9.10;1.75;;;4.80;99.90;;;;;;5091109;28;20047;-61
2022/04/08 02:02:47;;;;;;;8.13;1.73;;;4.80;99.90;;;;;;5092431;28;20436;-62
2022/04/08 02:05:12;;;;;;;7.38;1.63;;;4.80;99.90;;;;;;5092540;28;20036;-61
2022/04/08 02:07:39;;;;;;;10.30;1.75;;;4.80;99.90;;;;;;5092625;28;20417;-62
2022/04/08 02:10:05;;;;;;;9.10;1.88;;;4.70;99.90;;;;;;5092639;28;20044;-61
2022/04/08 02:12:31;;;;;;;12.55;1.90;;;4.80;99.90;;;;;;5092486;28;20138;-62
2022/04/08 02:14:57;;;;;;;11.18;1.63;;;4.70;99.90;;;;;;5092168;28;20047;-62
2022/04/08 02:17:25;;;;;;;14.48;1.90;;;4.70;99.90;;;;;;5092032;28;20040;-62
2022/04/08 02:19:52;;;;;;;9.13;2.10;;;4.70;99.90;;;;;;5091160;28;20040;-61
2022/04/08 02:22:19;;;;;;;11.65;2.00;;;4.80;99.90;;;;;;5092200;28;20047;-61
2022/04/08 02:24:46;;;;;;;14.95;2.20;;;4.80;99.90;;;;;;5092151;28;20047;-61
2022/04/08 02:27:12;;;;;;;18.30;2.05;;;4.80;99.90;;;;;;5092100;28;20149;-61
2022/04/08 02:29:38;;;;;;;12.48;2.13;;;4.90;99.90;;;;;;5092147;28;20386;-61
2022/04/08 02:32:04;;;;;;;8.02;1.45;;;4.80;99.90;;;;;;5090432;28;20516;-61
2022/04/08 02:34:30;;;;;;;8.68;1.70;;;4.70;99.90;;;;;;5092101;28;20093;-61
2022/04/08 02:36:56;;;;;;;7.50;1.02;;;4.70;99.90;;;;;;5092069;28;20035;-62
2022/04/08 02:39:21;;;;;;;8.30;1.50;;;4.70;99.90;;;;;;5091829;28;20040;-61
2022/04/08 02:41:47;;;;;;;8.40;1.30;;;4.70;99.90;;;;;;5092089;28;20032;-61
2022/04/08 02:44:13;;;;;;;11.45;1.70;;;4.60;99.90;;;;;;5092130;28;20122;-61
2022/04/08 02:46:38;;;;;;;8.43;1.50;;;4.60;99.90;;;;;;5091880;28;20043;-62
2022/04/08 02:49:04;;;;;;;10.63;1.88;;;4.50;99.90;;;;;;5091771;28;20036;-62
2022/04/08 02:51:29;;;;;;;6.07;1.10;;;4.50;99.90;;;;;;5091869;28;20035;-61
2022/04/08 02:53:56;;;;;;;11.20;1.52;;;4.40;99.90;;;;;;5090435;28;20040;-61
2022/04/08 02:56:22;;;;;;;7.32;1.30;;;4.30;99.90;;;;;;5091735;28;20111;-61
2022/04/08 02:58:48;;;;;;;10.68;1.70;;;4.30;99.90;;;;;;5094068;28;20040;-61
2022/04/08 03:01:15;;;;;;;14.20;1.40;;;4.40;99.90;;;;;;5096006;28;20040;-61
2022/04/08 03:03:41;;;;;;;15.02;2.20;;;4.40;99.90;;;;;;5095983;28;20097;-61
2022/04/08 03:06:07;;;;;;;8.75;1.55;;;4.40;99.90;;;;;;5095904;28;20424;-61
2022/04/08 03:08:33;;;;;;;13.27;2.63;;;4.40;99.90;;;;;;5094602;28;20047;-61
2022/04/08 03:10:58;;;;;;;7.15;1.35;;;4.30;99.90;;;;;;5095923;28;20044;-61
2022/04/08 03:13:24;;;;;;;4.90;1.35;;;4.40;99.90;;;;;;5095900;28;20036;-61
2022/04/08 03:15:50;;;;;;;9.70;1.80;;;4.30;99.90;;;;;;5095513;28;20036;-61
2022/04/08 03:18:16;;;;;;;7.68;1.40;;;4.30;99.90;;;;;;5095704;28;20040;-62
2022/04/08 03:20:41;;;;;;;8.02;1.60;;;4.30;99.90;;;;;;5095790;28;20044;-61
2022/04/08 03:23:07;;;;;;;8.68;1.38;;;4.30;99.90;;;;;;5095553;28;20393;-61
2022/04/08 03:25:33;;;;;;;10.43;1.55;;;4.20;99.90;;;;;;5095390;28;20122;-61
2022/04/08 03:27:58;;;;;;;12.90;1.70;;;4.30;99.90;;;;;;5095361;28;20044;-61
2022/04/08 03:30:27;;;;;;;9.02;1.67;;;4.20;99.90;;;;;;5095277;28;20043;-62
2022/04/08 03:32:54;;;;;;;10.38;1.60;;;4.30;99.90;;;;;;5095324;28;20074;-62
2022/04/08 03:35:20;;;;;;;10.20;1.90;;;4.20;99.90;;;;;;5095282;28;20537;-61
2022/04/08 03:37:45;;;;;;;18.35;2.00;;;4.30;99.90;;;;;;5095091;28;20128;-61
2022/04/08 03:40:11;;;;;;;12.50;2.40;;;4.30;99.90;;;;;;5095406;28;20077;-61
2022/04/08 03:42:37;;;;;;;8.50;1.52;;;4.30;99.90;;;;;;5095386;28;20505;-62
2022/04/08 03:45:04;;;;;;;11.75;2.00;;;4.30;99.90;;;;;;5095250;28;20032;-61
2022/04/08 03:47:30;;;;;;;15.20;1.92;;;4.30;99.90;;;;;;5094982;28;20048;-61
2022/04/08 03:49:57;;;;;;;11.43;2.30;;;4.20;99.90;;;;;;5095040;28;20043;-62
2022/04/08 03:52:23;;;;;;;7.85;1.42;;;4.30;99.90;;;;;;5094884;28;20032;-62
2022/04/08 03:54:49;;;;;;;4.82;1.00;;;4.40;99.90;;;;;;5095274;28;20054;-62
2022/04/08 03:57:14;;;;;;;10.45;2.22;;;4.40;99.90;;;;;;5094730;28;20066;-61
2022/04/08 03:59:41;;;;;;;5.57;1.10;;;4.40;99.90;;;;;;5095073;28;20032;-61
2022/04/08 04:02:07;;;;;;;4.47;1.30;;;4.00;99.90;;;;;;5094826;28;20036;-62
2022/04/08 04:04:34;;;;;;;7.18;1.52;;;3.80;99.90;;;;;;5094944;28;20040;-62
2022/04/08 04:07:00;;;;;;;5.55;1.15;;;3.70;99.90;;;;;;5094757;28;20043;-61
2022/04/08 04:09:26;;;;;;;4.57;1.27;;;3.60;99.90;;;;;;5093900;28;20387;-62
2022/04/08 04:11:52;;;;;;;8.98;1.27;;;3.70;99.90;;;;;;5094748;28;20044;-61
2022/04/08 04:14:17;;;;;;;4.88;1.10;;;3.60;99.90;;;;;;5094467;28;20381;-62
2022/04/08 04:16:43;;;;;;;4.03;1.00;;;3.70;99.90;;;;;;5093614;28;20051;-62
2022/04/08 04:19:09;;;;;;;6.82;1.30;;;3.70;99.90;;;;;;5094491;28;20549;-61
2022/04/08 04:21:35;;;;;;;6.90;1.20;;;3.60;99.90;;;;;;5094699;28;20093;-61
2022/04/08 04:24:00;;;;;;;6.82;1.42;;;3.60;99.90;;;;;;5094436;28;20039;-61
2022/04/08 04:26:26;;;;;;;7.75;1.73;;;3.60;99.90;;;;;;5093297;28;20079;-61
2022/04/08 04:28:51;;;;;;;7.10;1.20;;;3.70;99.90;;;;;;5094388;28;20139;-61
2022/04/08 04:31:17;;;;;;;5.70;1.15;;;3.60;99.90;;;;;;5094392;28;20040;-62
2022/04/08 04:33:43;;;;;;;2.67;1.15;;;3.60;99.90;;;;;;5093907;28;20044;-62
2022/04/08 04:36:11;;;;;;;5.00;1.13;;;3.60;99.90;;;;;;5094114;28;20076;-61
2022/04/08 04:38:36;;;;;;;6.57;1.00;;;3.60;99.90;;;;;;5094150;28;20534;-61
2022/04/08 04:41:02;;;;;;;3.10;1.02;;;3.60;99.90;;;;;;5093039;28;20124;-61
2022/04/08 04:43:27;;;;;;;2.03;0.90;;;3.50;99.90;;;;;;5094155;28;20046;-62
2022/04/08 04:45:53;;;;;;;3.50;1.05;;;3.50;99.90;;;;;;5093991;28;20032;-61
2022/04/08 04:48:19;;;;;;;4.93;1.02;;;3.50;99.90;;;;;;5093834;28;20124;-61
2022/04/08 04:50:46;;;;;;;9.20;1.55;;;3.60;99.90;;;;;;5094017;28;20043;-61
2022/04/08 04:53:12;;;;;;;7.00;1.38;;;3.60;99.90;;;;;;5092711;28;20040;-61
2022/04/08 04:55:38;;;;;;;6.80;1.33;;;3.60;99.90;;;;;;5093052;28;20036;-61
2022/04/08 04:58:04;;;;;;;8.05;1.67;;;3.70;99.90;;;;;;5093886;28;20515;-62
2022/04/08 05:00:30;;;;;;;4.43;1.60;;;3.70;99.90;;;;;;5093728;28;20032;-61
2022/04/08 05:02:55;;;;;;;5.05;1.88;;;3.70;99.90;;;;;;5093645;28;20466;-61
2022/04/08 05:05:21;;;;;;;4.75;1.52;;;3.80;99.90;;;;;;5093395;28;20036;-62
2022/04/08 05:07:46;;;;;;;5.22;1.52;;;3.70;99.90;;;;;;5093802;28;20051;-61
2022/04/08 05:10:12;;;;;;;3.95;1.10;;;3.70;99.90;;;;;;5093466;28;20036;-62
2022/04/08 05:12:38;;;;;;;4.90;1.10;;;3.70;99.90;;;;;;5093554;28;20393;-61
2022/04/08 05:15:09;;;;;;;4.28;1.33;;;3.70;99.90;;;;;;5092123;28;20048;-61
2022/04/08 05:17:38;;;;;;;7.95;1.13;;;3.80;99.90;;;;;;5093309;28;20036;-61
2022/04/08 05:20:05;;;;;;;;;;;3.80;99.90;;;;;;5093598;28;20040;-62
2022/04/08 05:22:31;;;;;;;6.68;1.02;;;3.80;99.90;;;;;;5092853;28;20365;-61
2022/04/08 05:24:58;;;;;;;4.90;1.00;;;3.70;99.90;;;;;;5093358;28;20040;-61
2022/04/08 05:27:24;;;;;;;8.18;1.00;;;3.80;99.90;;;;;;5093159;28;20048;-61
2022/04/08 05:29:50;;;;;;;3.05;0.90;;;3.90;99.90;;;;;;5093055;28;20032;-60
2022/04/08 05:32:15;;;;;;;6.00;1.75;;;3.90;99.90;;;;;;5092849;28;20478;-61
2022/04/08 05:34:41;;;;;;;3.65;1.00;;;3.90;99.90;;;;;;5093475;28;20084;-61
2022/04/08 05:37:07;;;;;;;2.83;0.98;;;3.90;99.90;;;;;;5093171;28;20028;-61
2022/04/08 05:39:33;;;;;;;1.73;0.93;;;3.90;99.90;;;;;;5092969;28;20079;-61
2022/04/08 05:41:59;;;;;;;7.15;1.42;;;4.00;99.90;;;;;;5093171;28;20079;-61
2022/04/08 05:44:24;;;;;;;6.53;1.08;;;4.00;99.90;;;;;;5092904;28;20035;-61
2022/04/08 05:46:50;;;;;;;5.25;1.45;;;4.00;99.90;;;;;;5092837;28;20042;-61
2022/04/08 05:49:17;;;;;;;2.97;1.20;;;4.00;99.90;;;;;;5092770;28;20127;-61
2022/04/08 05:51:45;;;;;;;5.55;1.38;;;4.10;99.90;;;;;;5092769;28;20119;-62
2022/04/08 05:54:11;;;;;;;6.95;1.35;;;4.20;99.90;;;;;;5091420;28;20119;-62
2022/04/08 05:56:37;;;;;;;8.20;1.27;;;4.20;99.90;;;;;;5092838;28;20040;-61
2022/04/08 05:59:03;;;;;;;7.18;1.52;;;4.20;99.90;;;;;;5092540;28;20050;-62
2022/04/08 06:01:29;;;;;;;5.80;1.30;;;4.30;99.90;;;;;;5092523;28;20035;-61
2022/04/08 06:03:54;;;;;;;4.03;1.42;;;4.30;99.90;;;;;;5092500;28;20039;-61
2022/04/08 06:06:20;;;;;;;7.85;1.33;;;4.30;99.90;;;;;;5092925;28;20178;-61
2022/04/08 06:08:46;;;;;;;5.70;1.33;;;4.50;99.90;;;;;;5092612;28;20044;-61
2022/04/08 06:11:12;;;;;;;4.30;1.20;;;4.50;99.90;;;;;;5092212;28;20390;-61
2022/04/08 06:13:37;;;;;;;4.22;1.15;;;4.60;99.90;;;;;;5092423;28;20040;-60
2022/04/08 06:16:04;;;;;;;6.40;1.30;;;4.60;99.90;;;;;;5092272;28;20118;-61
2022/04/08 06:18:29;;;;;;;6.78;1.15;;;4.80;99.90;;;;;;5092150;28;20032;-61
2022/04/08 06:20:55;;;;;;;6.95;1.00;;;4.90;99.90;;;;;;5092268;28;20531;-61
2022/04/08 06:23:21;;;;;;;7.25;1.40;;;5.00;99.90;;;;;;5092310;28;20383;-60
2022/04/08 06:25:48;;;;;;;8.18;1.55;;;5.20;99.90;;;;;;5092244;28;20039;-61
2022/04/08 06:28:14;;;;;;;7.03;2.15;;;5.30;99.90;;;;;;5092027;28;20083;-60
2022/04/08 06:30:40;;;;;;;6.60;1.55;;;5.50;99.90;;;;;;5091789;28;20071;-60
2022/04/08 06:33:07;;;;;;;7.85;1.50;;;5.70;99.90;;;;;;5091128;28;20048;-61
2022/04/08 06:35:33;;;;;;;5.53;1.80;;;5.80;99.90;;;;;;5092102;28;20137;-61
2022/04/08 06:38:07;;;;;;;5.70;1.80;;;6.00;99.90;;;;;;5092053;28;20044;-61
2022/04/08 06:40:38;;;;;;;6.60;1.48;;;6.20;99.90;;;;;;5092027;28;20040;-61
2022/04/08 06:43:05;;;;;;;16.83;1.70;;;6.30;99.90;;;;;;5092186;28;20072;-61
2022/04/08 06:45:31;;;;;;;7.50;2.28;;;6.60;99.90;;;;;;5092436;28;20558;-61
2022/04/08 06:47:57;;;;;;;10.05;1.60;;;6.60;99.90;;;;;;5092155;28;20036;-61
2022/04/08 06:50:23;;;;;;;6.30;1.45;;;6.80;99.90;;;;;;5091756;28;20040;-61
2022/04/08 06:52:49;;;;;;;6.57;1.52;;;7.00;99.90;;;;;;5091777;28;20059;-61
2022/04/08 06:55:14;;;;;;;7.85;1.60;;;7.00;99.90;;;;;;5090458;28;20055;-61
2022/04/08 06:57:42;;;;;;;6.75;1.60;;;7.20;99.90;;;;;;5091725;28;20119;-61
2022/04/08 07:00:10;;;;;;;4.40;1.98;;;7.20;99.90;;;;;;5090376;28;20481;-61
2022/04/08 07:02:36;;;;;;;8.60;1.73;;;7.30;99.90;;;;;;5092171;28;20044;-61
2022/04/08 07:05:03;;;;;;;4.25;1.48;;;7.60;99.90;;;;;;5091719;28;20032;-61
2022/04/08 07:07:31;;;;;;;5.25;1.38;;;7.80;99.90;;;;;;5091987;28;20040;-61
2022/04/08 07:09:57;;;;;;;5.15;1.60;;;8.00;99.90;;;;;;5091563;28;20036;-60
2022/04/08 07:12:27;;;;;;;4.38;1.40;;;8.10;99.90;;;;;;5091552;28;20382;-61
2022/04/08 07:14:53;;;;;;;8.60;1.55;;;8.40;99.90;;;;;;5091581;28;20036;-61
2022/04/08 07:17:26;;;;;;;6.70;1.20;;;8.50;99.90;;;;;;5091738;28;20070;-60
2022/04/08 07:19:52;;;;;;;4.47;1.50;;;8.80;99.90;;;;;;5091518;28;20075;-60
2022/04/08 07:22:17;;;;;;;11.35;2.85;;;8.50;99.90;;;;;;5091920;28;20587;-60
2022/04/08 07:24:43;;;;;;;7.60;2.55;;;8.40;99.90;;;;;;5091745;28;20043;-60
2022/04/08 07:27:09;;;;;;;10.20;1.88;;;8.40;99.90;;;;;;5091563;28;20040;-60
2022/04/08 07:29:35;;;;;;;3.40;1.50;;;8.40;99.90;;;;;;5091479;28;20083;-61
2022/04/08 07:32:01;;;;;;;4.28;1.42;;;8.20;99.90;;;;;;5091480;28;20087;-60
2022/04/08 07:34:26;;;;;;;5.95;1.42;;;8.50;99.90;;;;;;5091350;28;20060;-61
2022/04/08 07:36:52;;;;;;;7.38;1.50;;;8.50;99.90;;;;;;5091521;28;20043;-62
2022/04/08 07:39:20;;;;;;;4.32;1.48;;;8.10;99.90;;;;;;5091509;28;20444;-61
2022/04/08 07:41:46;;;;;;;5.72;1.25;;;7.70;99.90;;;;;;5091322;28;20569;-60
2022/04/08 07:44:12;;;;;;;5.93;1.65;;;7.30;99.90;;;;;;5092397;28;20119;-61
2022/04/08 07:46:37;;;;;;;3.97;0.95;;;6.90;99.90;;;;;;5095372;28;20044;-60
2022/04/08 07:49:03;;;;;;;7.75;1.15;;;6.80;99.90;;;;;;5095164;28;20039;-60
2022/04/08 07:51:28;;;;;;;8.23;1.60;;;6.80;99.90;;;;;;5095234;28;20036;-60
2022/04/08 07:53:54;;;;;;;5.57;1.58;;;6.90;99.90;;;;;;5094995;28;20466;-61
2022/04/08 07:56:20;;;;;;;4.65;1.25;;;7.30;99.90;;;;;;5093732;28;20036;-59
2022/04/08 07:58:47;;;;;;;5.70;1.73;;;7.70;99.90;;;;;;5094920;28;20516;-60
2022/04/08 08:01:13;;;;;;;9.05;1.73;;;8.00;99.90;;;;;;5094979;28;20079;-61
2022/04/08 08:03:40;;;;;;;5.75;1.75;;;8.70;99.90;;;;;;5095040;28;20465;-62
2022/04/08 08:06:06;;;;;;;6.55;1.70;;;9.00;99.90;;;;;;5094691;28;20043;-61
2022/04/08 08:08:32;;;;;;;5.43;1.30;;;9.40;99.90;;;;;;5094622;28;20047;-61
2022/04/08 08:10:58;;;;;;;4.65;1.38;;;9.40;99.90;;;;;;5094608;28;20036;-61
2022/04/08 08:13:23;;;;;;;9.02;1.67;;;9.30;99.90;;;;;;5095022;28;20057;-61
2022/04/08 08:15:49;;;;;;;14.70;2.25;;;9.40;99.90;;;;;;5095109;28;20476;-61
2022/04/08 08:18:15;;;;;;;8.20;1.75;;;9.50;99.90;;;;;;5094629;28;20119;-61
2022/04/08 08:20:40;;;;;;;9.30;1.50;;;9.10;99.90;;;;;;5094617;28;20047;-61
2022/04/08 08:23:06;;;;;;;6.95;1.70;;;8.90;99.90;;;;;;5092939;28;20052;-60
2022/04/08 08:25:33;;;;;;;12.40;2.10;;;9.20;99.90;;;;;;5094294;28;20047;-61
2022/04/08 08:28:01;;;;;;;7.88;1.58;;;9.40;99.90;;;;;;5094401;28;20117;-60
2022/04/08 08:30:29;;;;;;;6.27;1.70;;;9.70;99.90;;;;;;5094333;28;20097;-61
2022/04/08 08:32:55;;;;;;;10.23;1.70;;;9.80;99.90;;;;;;5094113;28;20044;-60
2022/04/08 08:35:21;;;;;;;7.68;1.38;;;10.20;99.90;;;;;;5094170;28;20052;-60
2022/04/08 08:37:49;;;;;;;4.07;1.10;;;10.30;99.90;;;;;;5094026;28;20039;-60
2022/04/08 08:40:16;;;;;;;10.20;1.70;;;10.00;99.90;;;;;;5094047;28;20480;-61
2022/04/08 08:42:42;;;;;;;10.63;1.15;;;9.70;99.90;;;;;;5094247;28;20390;-60
2022/04/08 08:45:10;;;;;;;4.05;1.60;;;9.60;99.90;;;;;;5094234;28;20036;-60
2022/04/08 08:47:36;;;;;;;6.05;1.20;;;9.40;99.90;;;;;;5093969;28;20105;-60
2022/04/08 08:50:04;;;;;;;6.93;1.60;;;9.20;99.90;;;;;;5093819;28;20036;-60
2022/04/08 08:52:31;;;;;;;10.77;1.30;;;9.20;99.90;;;;;;5093901;28;20031;-60
2022/04/08 08:54:57;;;;;;;6.47;1.55;;;9.50;99.90;;;;;;5093801;28;20501;-60
2022/04/08 08:57:23;;;;;;;7.05;1.90;;;9.40;99.90;;;;;;5093253;28;20058;-60
2022/04/08 08:59:52;;;;;;;10.77;2.15;;;9.30;99.90;;;;;;5093817;28;20036;-60
2022/04/08 09:02:21;;;;;;;7.32;1.13;;;9.20;99.90;;;;;;5093683;28;20032;-60
2022/04/08 09:04:49;;;;;;;6.50;1.20;;;9.10;99.90;;;;;;5093560;28;20486;-60
2022/04/08 09:07:28;;;;;;;8.65;1.63;;;8.90;99.90;;;;;;5093539;28;20501;-61
2022/04/08 09:09:56;;;;;;;3.50;1.13;;;8.50;99.90;;;;;;5093477;28;20040;-60
2022/04/08 09:12:24;;;;;;;7.20;1.30;;;8.00;99.90;;;;;;5093401;28;20497;-60
2022/04/08 09:14:55;;;;;;;7.53;1.37;;;8.00;99.90;;;;;;5093576;28;20119;-60
2022/04/08 09:17:23;;;;;;;5.90;1.40;;;7.90;99.90;;;;;;5093238;28;20281;-60
2022/04/08 09:19:51;;;;;;;8.50;1.27;;;8.30;99.90;;;;;;5093214;28;20051;-60
2022/04/08 09:22:18;;;;;;;8.20;1.38;;;8.80;99.90;;;;;;5093517;28;20039;-60
2022/04/08 09:24:44;;;;;;;9.40;1.77;;;9.40;99.90;;;;;;5093174;28;20040;-61
2022/04/08 09:27:11;;;;;;;4.40;1.33;;;9.90;99.90;;;;;;5093197;28;20036;-60
2022/04/08 09:29:37;;;;;;;6.05;1.50;;;9.80;99.90;;;;;;5093116;28;20047;-60
2022/04/08 09:32:10;;;;;;;4.22;0.98;;;9.50;99.90;;;;;;5092868;28;20043;-60
2022/04/08 09:34:37;;;;;;;3.60;0.73;;;8.30;99.90;;;;;;5093028;28;20482;-60
2022/04/08 09:37:13;;;;;;;2.30;0.70;;;7.90;99.90;;;;;;5093325;28;20469;-59
2022/04/08 09:39:58;;;;;;;3.00;0.68;;;7.70;99.90;;;;;;5093095;28;20429;-60
2022/04/08 09:42:24;;;;;;;5.47;0.90;;;7.40;99.90;;;;;;5092694;28;20047;-59
2022/04/08 09:44:51;;;;;;;2.88;0.90;;;7.40;99.90;;;;;;5093174;28;20044;-59
2022/04/08 09:47:17;;;;;;;3.97;0.90;;;7.40;99.90;;;;;;5093010;28;20047;-59
2022/04/08 09:49:42;;;;;;;3.85;1.10;;;7.40;99.90;;;;;;5092681;28;20043;-59
2022/04/08 09:52:10;;;;;;;3.90;1.38;;;7.60;99.90;;;;;;5091790;28;20122;-59
2022/04/08 09:54:42;;;;;;;7.72;1.88;;;8.00;99.90;;;;;;5092620;28;20573;-60
2022/04/08 09:57:17;;;;;;;6.47;1.10;;;8.40;99.90;;;;;;5092608;28;20110;-59
2022/04/08 09:59:47;;;;;;;5.50;1.90;;;8.90;99.90;;;;;;5092719;28;20379;-60
2022/04/08 10:02:15;;;;;;;5.65;1.85;;;9.60;99.90;;;;;;5092821;28;20085;-59
2022/04/08 10:04:42;;;;;;;3.92;1.52;;;10.10;99.90;;;;;;5092788;28;20044;-59
2022/04/08 10:07:09;;;;;;;8.70;1.88;;;10.10;99.90;;;;;;5092758;28;20043;-59
2022/04/08 10:09:48;;;;;;;4.43;1.00;;;10.10;99.90;;;;;;5092655;28;20046;-59
2022/04/08 10:12:33;;;;;;;;;;;9.50;99.90;;;;;;5092728;28;20083;-60
2022/04/08 10:15:11;;;;;;;3.90;1.10;;;8.90;99.90;;;;;;5092354;28;19919;-59
2022/04/08 10:17:39;;;;;;;1.65;0.70;;;8.60;99.90;;;;;;5092568;28;20133;-60
2022/04/08 10:20:21;;;;;;;3.92;0.70;;;8.60;99.90;;;;;;5092419;28;20047;-59
2022/04/08 10:22:48;;;;;;;1.52;0.70;;;8.50;99.90;;;;;;5092219;28;20129;-60
2022/04/08 10:25:16;;;;;;;5.07;1.20;;;8.90;99.90;;;;;;5092192;28;20044;-59
2022/04/08 10:27:46;;;;;;;4.13;1.20;;;9.40;99.90;;;;;;5092503;28;20113;-59
2022/04/08 10:30:23;;;;;;;4.75;0.90;;;9.60;99.90;;;;;;5091969;28;20151;-59
2022/04/08 10:33:03;;;;;;;2.88;1.27;;;9.60;99.90;;;;;;5091550;28;20048;-60
2022/04/08 10:35:31;;;;;;;4.30;1.40;;;9.50;99.90;;;;;;5092180;28;20443;-60
2022/04/08 10:38:00;;;;;;;6.78;1.45;;;9.80;99.90;;;;;;5091986;28;20048;-59
2022/04/08 10:40:39;;;;;;;6.15;1.33;;;10.10;99.90;;;;;;5091953;28;20044;-59
2022/04/08 10:43:13;;;;;;;4.78;1.08;;;10.40;99.90;;;;;;5091937;28;20047;-59
2022/04/08 10:45:58;;;;;;;5.18;1.10;;;10.10;99.90;;;;;;5091981;28;20044;-59
2022/04/08 10:48:34;;;;;;;5.57;1.35;;;9.70;99.90;;;;;;5091867;28;20389;-59
2022/04/08 10:51:05;;;;;;;5.05;1.55;;;9.20;99.90;;;;;;5091722;28;20032;-59
2022/04/08 10:53:34;;;;;;;4.32;1.02;;;8.80;99.90;;;;;;5090118;28;20086;-59
2022/04/08 10:56:12;;;;;;;2.92;0.73;;;8.80;99.90;;;;;;5091805;28;20394;-60
2022/04/08 10:58:52;;;;;;;3.22;1.20;;;8.90;99.90;;;;;;5091694;28;20046;-60
2022/04/08 11:01:23;;;;;;;7.60;1.08;;;9.10;99.90;;;;;;5091846;28;20032;-60
2022/04/08 11:04:02;;;;;;;7.15;1.75;;;9.30;99.90;;;;;;5091743;28;20040;-60
2022/04/08 11:06:36;;;;;;;12.18;1.85;;;9.70;99.90;;;;;;5091722;28;20036;-60
2022/04/08 11:09:11;;;;;;;6.18;1.40;;;10.00;99.90;;;;;;5091635;28;20083;-59
2022/04/08 11:11:42;;;;;;;10.27;2.38;;;10.30;99.90;;;;;;5090487;28;20044;-59
2022/04/08 11:14:11;;;;;;;5.80;1.33;;;10.50;99.90;;;;;;5091898;28;20039;-59
2022/04/08 11:16:41;;;;;;;6.78;1.67;;;10.20;99.90;;;;;;5091563;28;20070;-59
2022/04/08 11:19:08;;;;;;;7.88;1.27;;;9.90;99.90;;;;;;5092499;28;20116;-59
2022/04/08 11:21:38;;;;;;;9.02;1.27;;;9.80;99.90;;;;;;5095418;28;20090;-59
2022/04/08 11:24:08;;;;;;;6.80;1.23;;;9.70;99.90;;;;;;5095502;28;20078;-59
2022/04/08 11:26:47;;;;;;;6.43;1.55;;;9.80;99.90;;;;;;5095660;28;20043;-59
2022/04/08 11:29:22;;;;;;;5.45;1.27;;;9.70;99.90;;;;;;5095308;28;20040;-59
2022/04/08 11:31:50;;;;;;;3.95;1.20;;;9.60;99.90;;;;;;5093603;28;20478;-59
2022/04/08 11:34:17;;;;;;;4.72;1.20;;;9.80;99.90;;;;;;5095162;28;20052;-59
2022/04/08 11:36:46;;;;;;;3.30;1.45;;;9.80;99.90;;;;;;5095531;28;20604;-59
2022/04/08 11:39:19;;;;;;;3.15;0.90;;;9.70;99.90;;;;;;5095269;28;20131;-59
2022/04/08 11:41:53;;;;;;;9.50;1.08;;;9.90;99.90;;;;;;5095448;28;20047;-59
2022/04/08 11:44:22;;;;;;;4.95;1.23;;;9.80;99.90;;;;;;5095291;28;20046;-59
2022/04/08 11:46:50;;;;;;;5.30;0.88;;;9.80;99.90;;;;;;5095181;28;20039;-59
2022/04/08 11:49:24;;;;;;;4.38;1.63;;;9.70;99.90;;;;;;5095075;28;20073;-60
2022/04/08 11:52:04;;;;;;;12.18;1.67;;;10.00;99.90;;;;;;5094881;28;20067;-60
2022/04/08 11:54:39;;;;;;;6.32;1.20;;;10.60;99.90;;;;;;5095104;28;20102;-60
2022/04/08 11:57:07;;;;;;;5.38;1.23;;;10.60;99.90;;;;;;5094616;28;20040;-60
2022/04/08 11:59:35;;;;;;;6.33;1.03;;;10.60;99.90;;;;;;5094708;28;20047;-59
2022/04/08 12:02:04;;;;;;;6.72;1.35;;;10.50;99.90;;;;;;5094751;28;20278;-60
2022/04/08 12:04:31;;;;;;;;;;;10.30;99.90;;;;;;5095390;28;20036;-60
2022/04/08 12:07:00;;;;;;;4.13;1.00;;;10.30;99.90;;;;;;5094807;28;19985;-60
2022/04/08 12:09:27;;;;;;;8.57;1.50;;;10.20;99.90;;;;;;5094493;28;20446;-60
2022/04/08 12:11:56;;;;;;;9.07;1.40;;;10.20;99.90;;;;;;5094766;28;20394;-60
2022/04/08 12:14:25;;;;;;;7.78;1.23;;;10.10;99.90;;;;;;5094433;28;20048;-60
2022/04/08 12:17:02;;;;;;;5.97;1.98;;;10.40;99.90;;;;;;5094526;28;20044;-61
2022/04/08 12:19:28;;;;;;;14.45;1.73;;;10.60;99.90;;;;;;5094701;28;20440;-60
2022/04/08 12:21:55;;;;;;;3.08;1.00;;;10.60;99.90;;;;;;5094651;28;20039;-60
2022/04/08 12:24:22;;;;;;;8.60;2.55;;;10.40;99.90;;;;;;5094520;28;20040;-60
2022/04/08 12:26:52;;;;;;;7.72;1.40;;;10.50;99.90;;;;;;5094634;28;20060;-60
2022/04/08 12:29:18;;;;;;;3.40;0.85;;;10.70;99.90;;;;;;5094216;28;20040;-59
2022/04/08 12:31:55;;;;;;;9.35;1.48;;;10.80;99.90;;;;;;5093339;28;20036;-60
2022/04/08 12:34:21;;;;;;;3.80;1.30;;;10.70;99.90;;;;;;5094343;28;20051;-61
2022/04/08 12:36:48;;;;;;;6.15;1.30;;;10.30;99.90;;;;;;5094110;28;20040;-59
2022/04/08 12:39:16;;;;;;;5.13;1.48;;;9.90;99.90;;;;;;5094064;28;20055;-59
2022/04/08 12:41:44;;;;;;;5.13;1.55;;;10.00;99.90;;;;;;5093979;28;20035;-61
2022/04/08 12:44:10;;;;;;;4.40;1.27;;;10.00;99.90;;;;;;5093844;28;20052;-59
2022/04/08 12:46:38;;;;;;;3.90;1.25;;;10.10;99.90;;;;;;5094236;28;20044;-60
2022/04/08 12:49:06;;;;;;;6.28;1.83;;;10.10;99.90;;;;;;5093915;28;20040;-59
2022/04/08 12:51:34;;;;;;;3.17;1.42;;;10.40;99.90;;;;;;5093890;28;20063;-61
2022/04/08 12:54:01;;;;;;;2.53;1.20;;;10.80;99.90;;;;;;5093690;28;20032;-61
2022/04/08 12:56:28;;;;;;;4.85;1.05;;;10.90;99.90;;;;;;5093853;28;20050;-60
2022/04/08 12:58:57;;;;;;;6.10;1.20;;;11.30;99.90;;;;;;5093696;28;20043;-60
2022/04/08 13:01:24;;;;;;;4.10;1.25;;;11.50;99.90;;;;;;5093852;28;20044;-59
2022/04/08 13:03:52;;;;;;;4.13;1.10;;;11.80;99.90;;;;;;5093627;28;20113;-59
2022/04/08 13:06:20;;;;;;;3.45;1.08;;;11.90;99.90;;;;;;5093633;28;20047;-59
2022/04/08 13:08:47;;;;;;;4.45;1.10;;;12.10;99.90;;;;;;5093569;28;20466;-59
2022/04/08 13:11:13;;;;;;;8.77;1.55;;;11.90;99.90;;;;;;5093567;28;20044;-59